Liberty — WDD2088 — position and weather

sailwx.info

Track history (hours):
 
Tides and Currents Weather Stations Pressure Air Temp Water Temp Dewpoint Dewpoint Depression Visibility Wind Speed Wind Dir Waves Ship Positions

Liberty

Owner: HORIZON 82 LEASING LLC, Provo, UT. More information available from US FCC via Universal Licensing System.

Last reported at 2016-Sep-09 21:33 UTC. Time now 2016-Sep-26 00:21 UTC.
Position N 48°31' W 122°35'.
Warning: this ship's position is 16 days out of date.

Length 25 m; draft 2.2 m.

MMSI: 367110770.

Date/timePositionNaut miles runAvg speedWind from/ knotsBaromVisibWave heightAir tempDewpointWater temp
2016-Sep-09 21:33N 48°31' W 122°35'9 9.3
2016-Sep-09 20:33N 48°32' W 122°49'14 6.8
2016-Sep-09 18:28N 48°37' W 123°09'5 5.0
2016-Sep-09 17:28N 48°41' W 123°11'9 9.3
2016-Sep-09 16:28N 48°47' W 123°22'6 6.5
2016-Sep-09 15:33N 48°51' W 123°29'0 0.0
2016-Sep-09 14:30N 48°51' W 123°29'0 0.0
2016-Sep-09 13:27N 48°51' W 123°29'0 0.0
2016-Sep-09 12:33N 48°51' W 123°29'0 0.0
2016-Sep-09 11:33N 48°51' W 123°29'0 0.0
2016-Sep-09 10:32N 48°51' W 123°29'0 0.0
2016-Sep-09 09:33N 48°51' W 123°29'0 0.0
2016-Sep-09 08:33N 48°51' W 123°29'0 0.0
2016-Sep-09 07:33N 48°51' W 123°29'0 0.0
2016-Sep-09 06:33N 48°51' W 123°29'0 0.0
2016-Sep-09 05:33N 48°51' W 123°29'0 0.0
2016-Sep-09 04:34N 48°51' W 123°29'0 0.0
2016-Sep-09 03:33N 48°51' W 123°29'0 0.0
2016-Sep-09 02:33N 48°51' W 123°29'0 0.0
2016-Sep-09 01:34N 48°51' W 123°29'8 7.5
2016-Sep-09 00:32N 48°53' W 123°18'1010.6
2016-Sep-08 23:33N 49°04' W 123°20'1010.0
2016-Sep-08 22:33N 49°14' W 123°17'5 5.3
2016-Sep-08 21:33N 49°13' W 123°09'1 0.6
2016-Sep-08 20:33N 49°12' W 123°09'0 0.0
2016-Sep-08 19:24N 49°12' W 123°09'0 0.0
2016-Sep-08 18:33N 49°12' W 123°09'0 0.0
2016-Sep-08 17:33N 49°12' W 123°09'0 0.0
2016-Sep-08 16:33N 49°12' W 123°09'0 0.0
2016-Sep-08 06:21N 49°12' W 123°09'0 0.0
2016-Sep-08 03:30N 49°12' W 123°09'0 0.0
2016-Sep-08 01:33N 49°12' W 123°09'0 0.0
2016-Sep-08 00:27N 49°12' W 123°09'0 0.0
2016-Sep-07 22:19N 49°12' W 123°09'0 0.0
2016-Sep-07 21:33N 49°12' W 123°09'0 0.0
2016-Sep-07 19:31N 49°12' W 123°09'0 0.0
2016-Sep-07 17:21N 49°12' W 123°09'0 0.0
2016-Sep-07 13:31N 49°12' W 123°09'0 0.0
2016-Sep-07 12:13N 49°12' W 123°09'0 0.0
2016-Sep-07 11:22N 49°12' W 123°09'0 0.0
2016-Sep-07 09:24N 49°12' W 123°09'0 0.0
2016-Sep-07 08:28N 49°12' W 123°09'0 0.0
2016-Sep-06 04:32N 49°12' W 123°09'0 0.0
2016-Sep-05 23:20N 49°12' W 123°09'0 0.0
2016-Sep-05 20:20N 49°12' W 123°09'0 0.0
2016-Sep-05 12:32N 49°12' W 123°09'0 0.0
2016-Sep-05 09:25N 49°12' W 123°09'0 0.0
2016-Sep-05 04:32N 49°12' W 123°09'0 0.0
2016-Sep-04 02:14N 49°12' W 123°09'0 0.0
2016-Sep-03 23:32N 49°12' W 123°09'0 0.0
2016-Sep-03 22:29N 49°12' W 123°09'0 0.0
2016-Sep-03 17:17N 49°12' W 123°09'0 0.0
2016-Sep-03 13:17N 49°12' W 123°09'0 0.0
2016-Sep-03 12:18N 49°12' W 123°09'0 0.0
2016-Sep-03 11:24N 49°12' W 123°09'0 0.0
2016-Sep-03 10:14N 49°12' W 123°09'0 0.0
2016-Sep-03 09:06N 49°12' W 123°09'0 0.0
2016-Sep-03 07:17N 49°12' W 123°09'0 0.0
2016-Sep-03 06:29N 49°12' W 123°09'0 0.0
2016-Sep-03 05:29N 49°12' W 123°09'0 0.0
2016-Sep-03 04:24N 49°12' W 123°09'0 0.0
2016-Sep-03 03:23N 49°12' W 123°09'0 0.0
2016-Sep-03 02:29N 49°12' W 123°09'0 0.0
2016-Sep-02 22:31N 49°12' W 123°09'0 0.0
2016-Sep-02 21:32N 49°12' W 123°09'0 0.0
2016-Sep-02 18:09N 49°12' W 123°09'0 0.0
2016-Sep-02 04:24N 49°12' W 123°09'0 0.0
2016-Sep-02 03:11N 49°12' W 123°09'0 0.0
2016-Sep-02 02:29N 49°12' W 123°09'0 0.0
2016-Sep-01 22:17N 49°12' W 123°09'0 0.0
2016-Sep-01 21:23N 49°12' W 123°09'0 0.0
2016-Sep-01 20:05N 49°12' W 123°09'0 0.0
2016-Sep-01 19:29N 49°12' W 123°09'5 5.2
2016-Sep-01 18:33N 49°15' W 123°15'10 9.8
2016-Sep-01 17:33N 49°14' W 123°30'1211.9
2016-Sep-01 16:33N 49°13' W 123°48'5 4.2
2016-Sep-01 15:28N 49°08' W 123°48'0 0.0
2016-Sep-01 14:31N 49°08' W 123°48'0 0.0
2016-Sep-01 13:28N 49°08' W 123°48'0 0.0
2016-Sep-01 12:28N 49°08' W 123°48'0 0.0
2016-Sep-01 11:22N 49°08' W 123°48'0 0.0
2016-Sep-01 10:22N 49°08' W 123°48'0 0.0
2016-Sep-01 09:31N 49°08' W 123°48'0 0.0
2016-Sep-01 08:22N 49°08' W 123°48'0 0.0
2016-Sep-01 07:10N 49°08' W 123°48'0 0.0
2016-Sep-01 06:22N 49°08' W 123°48'0 0.0
2016-Sep-01 05:28N 49°08' W 123°48'0 0.0
2016-Sep-01 04:28N 49°08' W 123°48'0 0.0
2016-Sep-01 03:28N 49°08' W 123°48'0 0.0
2016-Sep-01 02:28N 49°08' W 123°48'0 0.0
2016-Sep-01 01:28N 49°08' W 123°48'0 0.0
2016-Sep-01 00:28N 49°08' W 123°48'0 0.0
2016-Aug-31 23:28N 49°08' W 123°48'1 0.4
2016-Aug-31 21:31N 49°08' W 123°48'32 7.7
2016-Aug-31 17:18N 48°45' W 123°14'6 7.4
2016-Aug-31 16:33N 48°44' W 123°05'8 6.8
2016-Aug-31 15:26N 48°46' W 122°54'0 0.0
2016-Aug-31 01:32N 48°46' W 122°54'9 2.8
2016-Aug-30 22:18N 48°40' W 122°44'810.7
2016-Aug-30 21:34N 48°34' W 122°36'  
Track history (hours):
 
Tides and Currents Weather Stations Pressure Air Temp Water Temp Dewpoint Dewpoint Depression Visibility Wind Speed Wind Dir Waves Ship Positions

Liberty

Owner: HORIZON 82 LEASING LLC, Provo, UT. More information available from US FCC via Universal Licensing System.

Last reported at 2016-Sep-09 21:33 UTC. Time now 2016-Sep-26 00:21 UTC.
Position N 48°31' W 122°35'.
Warning: this ship's position is 16 days out of date.

Length 25 m; draft 2.2 m.

MMSI: 367110770.

Date/timePositionNaut miles runAvg speedWind from/ knotsBaromVisibWave heightAir tempDewpointWater temp
2016-Sep-09 21:33N 48°31' W 122°35'9 9.3
2016-Sep-09 20:33N 48°32' W 122°49'14 6.8
2016-Sep-09 18:28N 48°37' W 123°09'5 5.0
2016-Sep-09 17:28N 48°41' W 123°11'9 9.3
2016-Sep-09 16:28N 48°47' W 123°22'6 6.5
2016-Sep-09 15:33N 48°51' W 123°29'0 0.0
2016-Sep-09 14:30N 48°51' W 123°29'0 0.0
2016-Sep-09 13:27N 48°51' W 123°29'0 0.0
2016-Sep-09 12:33N 48°51' W 123°29'0 0.0
2016-Sep-09 11:33N 48°51' W 123°29'0 0.0
2016-Sep-09 10:32N 48°51' W 123°29'0 0.0
2016-Sep-09 09:33N 48°51' W 123°29'0 0.0
2016-Sep-09 08:33N 48°51' W 123°29'0 0.0
2016-Sep-09 07:33N 48°51' W 123°29'0 0.0
2016-Sep-09 06:33N 48°51' W 123°29'0 0.0
2016-Sep-09 05:33N 48°51' W 123°29'0 0.0
2016-Sep-09 04:34N 48°51' W 123°29'0 0.0
2016-Sep-09 03:33N 48°51' W 123°29'0 0.0
2016-Sep-09 02:33N 48°51' W 123°29'0 0.0
2016-Sep-09 01:34N 48°51' W 123°29'8 7.5
2016-Sep-09 00:32N 48°53' W 123°18'1010.6
2016-Sep-08 23:33N 49°04' W 123°20'1010.0
2016-Sep-08 22:33N 49°14' W 123°17'5 5.3
2016-Sep-08 21:33N 49°13' W 123°09'1 0.6
2016-Sep-08 20:33N 49°12' W 123°09'0 0.0
2016-Sep-08 19:24N 49°12' W 123°09'0 0.0
2016-Sep-08 18:33N 49°12' W 123°09'0 0.0
2016-Sep-08 17:33N 49°12' W 123°09'0 0.0
2016-Sep-08 16:33N 49°12' W 123°09'0 0.0
2016-Sep-08 06:21N 49°12' W 123°09'0 0.0
2016-Sep-08 03:30N 49°12' W 123°09'0 0.0
2016-Sep-08 01:33N 49°12' W 123°09'0 0.0
2016-Sep-08 00:27N 49°12' W 123°09'0 0.0
2016-Sep-07 22:19N 49°12' W 123°09'0 0.0
2016-Sep-07 21:33N 49°12' W 123°09'0 0.0
2016-Sep-07 19:31N 49°12' W 123°09'0 0.0
2016-Sep-07 17:21N 49°12' W 123°09'0 0.0
2016-Sep-07 13:31N 49°12' W 123°09'0 0.0
2016-Sep-07 12:13N 49°12' W 123°09'0 0.0
2016-Sep-07 11:22N 49°12' W 123°09'0 0.0
2016-Sep-07 09:24N 49°12' W 123°09'0 0.0
2016-Sep-07 08:28N 49°12' W 123°09'0 0.0
2016-Sep-06 04:32N 49°12' W 123°09'0 0.0
2016-Sep-05 23:20N 49°12' W 123°09'0 0.0
2016-Sep-05 20:20N 49°12' W 123°09'0 0.0
2016-Sep-05 12:32N 49°12' W 123°09'0 0.0
2016-Sep-05 09:25N 49°12' W 123°09'0 0.0
2016-Sep-05 04:32N 49°12' W 123°09'0 0.0
2016-Sep-04 02:14N 49°12' W 123°09'0 0.0
2016-Sep-03 23:32N 49°12' W 123°09'0 0.0
2016-Sep-03 22:29N 49°12' W 123°09'0 0.0
2016-Sep-03 17:17N 49°12' W 123°09'0 0.0
2016-Sep-03 13:17N 49°12' W 123°09'0 0.0
2016-Sep-03 12:18N 49°12' W 123°09'0 0.0
2016-Sep-03 11:24N 49°12' W 123°09'0 0.0
2016-Sep-03 10:14N 49°12' W 123°09'0 0.0
2016-Sep-03 09:06N 49°12' W 123°09'0 0.0
2016-Sep-03 07:17N 49°12' W 123°09'0 0.0
2016-Sep-03 06:29N 49°12' W 123°09'0 0.0
2016-Sep-03 05:29N 49°12' W 123°09'0 0.0
2016-Sep-03 04:24N 49°12' W 123°09'0 0.0
2016-Sep-03 03:23N 49°12' W 123°09'0 0.0
2016-Sep-03 02:29N 49°12' W 123°09'0 0.0
2016-Sep-02 22:31N 49°12' W 123°09'0 0.0
2016-Sep-02 21:32N 49°12' W 123°09'0 0.0
2016-Sep-02 18:09N 49°12' W 123°09'0 0.0
2016-Sep-02 04:24N 49°12' W 123°09'0 0.0
2016-Sep-02 03:11N 49°12' W 123°09'0 0.0
2016-Sep-02 02:29N 49°12' W 123°09'0 0.0
2016-Sep-01 22:17N 49°12' W 123°09'0 0.0
2016-Sep-01 21:23N 49°12' W 123°09'0 0.0
2016-Sep-01 20:05N 49°12' W 123°09'0 0.0
2016-Sep-01 19:29N 49°12' W 123°09'5 5.2
2016-Sep-01 18:33N 49°15' W 123°15'10 9.8
2016-Sep-01 17:33N 49°14' W 123°30'1211.9
2016-Sep-01 16:33N 49°13' W 123°48'5 4.2
2016-Sep-01 15:28N 49°08' W 123°48'0 0.0
2016-Sep-01 14:31N 49°08' W 123°48'0 0.0
2016-Sep-01 13:28N 49°08' W 123°48'0 0.0
2016-Sep-01 12:28N 49°08' W 123°48'0 0.0
2016-Sep-01 11:22N 49°08' W 123°48'0 0.0
2016-Sep-01 10:22N 49°08' W 123°48'0 0.0
2016-Sep-01 09:31N 49°08' W 123°48'0 0.0
2016-Sep-01 08:22N 49°08' W 123°48'0 0.0
2016-Sep-01 07:10N 49°08' W 123°48'0 0.0
2016-Sep-01 06:22N 49°08' W 123°48'0 0.0
2016-Sep-01 05:28N 49°08' W 123°48'0 0.0
2016-Sep-01 04:28N 49°08' W 123°48'0 0.0
2016-Sep-01 03:28N 49°08' W 123°48'0 0.0
2016-Sep-01 02:28N 49°08' W 123°48'0 0.0
2016-Sep-01 01:28N 49°08' W 123°48'0 0.0
2016-Sep-01 00:28N 49°08' W 123°48'0 0.0
2016-Aug-31 23:28N 49°08' W 123°48'1 0.4
2016-Aug-31 21:31N 49°08' W 123°48'32 7.7
2016-Aug-31 17:18N 48°45' W 123°14'6 7.4
2016-Aug-31 16:33N 48°44' W 123°05'8 6.8
2016-Aug-31 15:26N 48°46' W 122°54'0 0.0
2016-Aug-31 01:32N 48°46' W 122°54'9 2.8
2016-Aug-30 22:18N 48°40' W 122°44'810.7
2016-Aug-30 21:34N 48°34' W 122°36'  

Dump ship's entire track history